createdAt,value
2023-03-07T05:47:35.959Z,9.70
2023-03-07T05:50:04.075Z,8.95
2023-03-07T05:52:32.015Z,9.05
2023-03-07T05:54:59.918Z,8.23
2023-03-07T05:57:27.833Z,9.10
2023-03-07T05:59:55.828Z,8.55
2023-03-07T06:02:23.826Z,8.40
2023-03-07T06:04:53.132Z,8.82
2023-03-07T06:07:21.103Z,9.00
2023-03-07T06:09:49.067Z,8.75
2023-03-07T06:12:27.120Z,8.73
2023-03-07T06:14:55.250Z,8.13
2023-03-07T06:17:23.260Z,8.48
2023-03-07T06:19:52.824Z,8.68
2023-03-07T06:22:20.803Z,9.02
2023-03-07T06:24:48.716Z,8.55
2023-03-07T06:27:16.611Z,8.80
2023-03-07T06:29:44.740Z,8.43
2023-03-07T06:32:12.658Z,8.38
2023-03-07T06:34:40.576Z,9.18
2023-03-07T06:37:09.881Z,8.70
2023-03-07T06:39:37.790Z,9.07
2023-03-07T06:42:06.215Z,9.07
2023-03-07T06:44:34.105Z,8.70
2023-03-07T06:47:02.160Z,8.70
2023-03-07T06:49:30.233Z,7.80
2023-03-07T06:51:58.231Z,8.15
2023-03-07T06:54:27.455Z,8.40
2023-03-07T06:56:55.572Z,8.05
2023-03-07T06:59:23.661Z,9.32
2023-03-07T07:01:51.786Z,7.75
2023-03-07T07:04:21.052Z,8.52
2023-03-07T07:06:48.912Z,8.40
2023-03-07T07:09:16.809Z,10.50
2023-03-07T07:11:46.025Z,10.57
2023-03-07T07:14:14.013Z,8.40
2023-03-07T07:16:42.097Z,8.48
2023-03-07T07:19:10.570Z,7.78
2023-03-07T07:21:38.727Z,7.90
2023-03-07T07:24:07.116Z,8.98
2023-03-07T07:26:35.139Z,7.57
2023-03-07T07:29:04.568Z,7.65
2023-03-07T07:31:32.564Z,8.13
2023-03-07T07:34:00.805Z,8.15
2023-03-07T07:36:28.932Z,7.63
2023-03-07T07:38:56.924Z,7.78
2023-03-07T07:41:24.921Z,8.27
2023-03-07T07:43:54.373Z,7.70
2023-03-07T15:02:35.010Z,6.57
2023-03-07T15:05:04.037Z,5.60
2023-03-07T15:07:32.005Z,5.63
2023-03-07T15:09:59.910Z,5.95
2023-03-07T15:12:30.369Z,4.88
2023-03-07T15:15:01.172Z,4.85
2023-03-07T15:17:34.364Z,5.18
2023-03-07T15:20:07.924Z,5.32
2023-03-07T15:22:40.132Z,4.85
2023-03-07T15:25:17.854Z,5.10
2023-03-07T15:27:45.894Z,5.75
2023-03-07T15:30:24.888Z,4.90
2023-03-07T15:33:15.590Z,5.45
2023-03-07T15:35:45.882Z,5.07
2023-03-07T15:38:19.076Z,5.43
2023-03-07T15:40:47.764Z,5.55
2023-03-07T15:43:18.316Z,5.82
2023-03-07T15:45:58.708Z,5.22
2023-03-07T15:48:30.836Z,5.75
2023-03-07T15:51:04.518Z,5.57
2023-03-07T15:53:34.887Z,4.35
2023-03-07T15:56:05.352Z,4.78
2023-03-07T15:58:36.273Z,5.00
2023-03-07T16:01:16.214Z,5.40
2023-03-07T16:03:50.817Z,5.68
2023-03-07T16:06:41.930Z,5.88
2023-03-07T16:09:13.909Z,6.70
2023-03-07T16:11:42.681Z,5.28
2023-03-07T16:14:21.597Z,4.88
2023-03-07T16:16:50.003Z,5.13
2023-03-07T16:19:18.041Z,5.30
2023-03-07T16:21:47.919Z,5.10
2023-03-07T16:24:15.945Z,5.07
2023-03-07T16:26:47.482Z,4.30
2023-03-07T16:29:17.730Z,5.32
2023-03-07T16:31:46.471Z,4.40
2023-03-07T16:34:17.283Z,4.43
2023-03-07T16:36:47.292Z,4.53
2023-03-07T16:39:18.449Z,4.57
2023-03-07T16:41:49.161Z,4.93
2023-03-07T16:44:18.164Z,5.75
2023-03-07T16:46:51.516Z,5.72
2023-03-07T16:49:19.619Z,6.50
2023-03-07T16:52:03.036Z,4.28
2023-03-07T16:54:34.807Z,4.82
2023-03-07T16:57:03.714Z,4.75
2023-03-07T16:59:35.571Z,4.45
2023-03-07T17:02:11.740Z,4.50
2023-03-07T17:04:39.782Z,4.60
2023-03-07T17:07:16.501Z,3.95
2023-03-07T17:09:46.276Z,4.28
2023-03-07T17:12:14.959Z,4.50
2023-03-07T17:14:43.304Z,4.93
2023-03-07T17:17:17.816Z,5.35
2023-03-07T17:19:45.741Z,5.63
2023-03-07T17:22:13.638Z,5.38
2023-03-07T17:24:41.571Z,9.38
2023-03-07T17:27:10.957Z,13.98
2023-03-07T17:29:41.177Z,7.13
2023-03-07T17:32:09.386Z,7.50
2023-03-07T17:34:38.747Z,6.05
2023-03-07T17:37:07.170Z,5.00
2023-03-07T17:39:36.058Z,5.38
2023-03-07T17:42:04.673Z,5.38
2023-03-07T17:44:34.507Z,4.60
2023-03-07T17:47:02.465Z,4.57
2023-03-07T17:49:34.613Z,4.93
2023-03-07T17:52:02.596Z,5.85
2023-03-07T17:54:32.323Z,5.40
2023-03-07T17:57:00.914Z,6.30
2023-03-07T17:59:28.898Z,5.72
2023-03-07T18:01:58.313Z,5.05
2023-03-07T18:04:28.413Z,5.53
2023-03-07T18:06:56.411Z,5.47
2023-03-07T18:09:26.398Z,5.90
2023-03-07T18:11:54.618Z,5.57
2023-03-07T18:14:22.611Z,5.28
2023-03-07T18:16:50.910Z,6.03
2023-03-07T18:19:26.308Z,6.30
2023-03-07T18:21:55.757Z,6.45
2023-03-07T18:24:27.261Z,5.95
2023-03-07T18:26:56.090Z,5.50
2023-03-07T18:29:25.063Z,6.45
2023-03-07T18:31:53.305Z,7.85
2023-03-07T18:34:24.638Z,7.20
2023-03-07T18:36:54.225Z,6.18
2023-03-07T18:39:23.671Z,6.28
2023-03-07T18:41:52.388Z,6.43
2023-03-07T18:44:20.580Z,7.20
2023-03-07T18:46:48.561Z,6.90
2023-03-07T18:49:17.735Z,6.82
2023-03-07T18:51:48.360Z,6.55
2023-03-07T18:54:16.558Z,6.50
2023-03-07T18:56:46.558Z,6.43
2023-03-07T18:59:14.963Z,7.20
2023-03-07T19:01:42.970Z,7.25
2023-03-07T19:04:11.704Z,7.07
2023-03-07T19:06:42.168Z,7.40
2023-03-07T19:09:15.854Z,7.82
2023-03-07T19:11:43.787Z,7.20
2023-03-07T19:14:11.735Z,7.00
2023-03-07T19:16:39.949Z,8.20
2023-03-07T19:19:07.985Z,7.82
2023-03-07T19:21:35.947Z,7.82
2023-03-07T19:24:05.745Z,7.63
2023-03-07T19:26:35.222Z,8.10
2023-03-07T19:29:04.296Z,8.57
2023-03-07T19:31:34.995Z,7.97
2023-03-07T19:34:04.954Z,7.63
2023-03-07T19:36:36.872Z,7.65
2023-03-07T19:39:05.818Z,7.65
2023-03-07T19:41:37.195Z,7.45
2023-03-07T19:44:06.519Z,8.57
2023-03-07T19:46:34.541Z,7.75
2023-03-07T19:49:02.440Z,7.47
2023-03-07T19:51:30.451Z,7.38
2023-03-07T19:53:59.994Z,7.88
2023-03-07T19:56:30.093Z,7.43
2023-03-07T19:59:01.583Z,7.10
2023-03-07T20:01:30.464Z,7.53
2023-03-07T20:03:58.882Z,6.90
2023-03-07T20:06:29.642Z,7.00
2023-03-07T20:08:59.006Z,6.63
2023-03-07T20:11:28.988Z,6.55
2023-03-07T20:13:58.350Z,5.85
2023-03-07T20:16:29.418Z,6.03
2023-03-07T20:18:58.811Z,6.38
2023-03-07T20:21:28.607Z,6.30
2023-03-07T20:23:59.446Z,6.38
2023-03-07T20:26:29.015Z,5.63
2023-03-07T20:28:58.006Z,6.00
2023-03-07T20:31:28.342Z,5.90
2023-03-07T20:33:58.061Z,5.88
2023-03-07T20:36:28.054Z,6.22
2023-03-07T20:38:57.821Z,6.28
2023-03-07T20:41:27.865Z,6.35
2023-03-07T20:43:59.479Z,6.32
2023-03-07T20:46:30.362Z,6.13
2023-03-07T20:49:00.287Z,7.20
2023-03-07T20:51:30.292Z,6.43
2023-03-07T20:54:00.121Z,6.25
2023-03-07T20:56:29.796Z,6.40
2023-03-07T20:58:59.057Z,6.00
